Time;durP1;ratioP1;P1;durP2;ratioP2;P2;SDS_P1;SDS_P2;PMS_P1;PMS_P2;Temp;Humidity;BMP_temperature;BMP_pressure;BME280_temperature;BME280_humidity;BME280_pressure;Samples;Min_cycle;Max_cycle;Signal;HPM_P1;HPM_P2
2021/04/04 00:02:20;;;;;;;10.65;5.55;;;;;;;;;;5014360;28;20528;-55
2021/04/04 00:04:46;;;;;;;8.13;4.95;;;;;;;;;;5014325;28;20538;-54
2021/04/04 00:07:12;;;;;;;12.77;6.10;;;;;;;;;;5014195;28;20041;-53
2021/04/04 00:09:38;;;;;;;9.30;5.57;;;;;;;;;;5014084;28;20034;-53
2021/04/04 00:12:04;;;;;;;8.70;5.18;;;;;;;;;;5013466;28;20041;-54
2021/04/04 00:14:30;;;;;;;12.02;5.93;;;;;;;;;;5013839;28;20034;-54
2021/04/04 00:16:56;;;;;;;11.75;6.13;;;;;;;;;;5013820;28;20134;-55
2021/04/04 00:19:22;;;;;;;12.38;6.50;;;;;;;;;;5014069;28;20426;-56
2021/04/04 00:21:48;;;;;;;13.27;6.47;;;;;;;;;;5013656;28;20061;-55
2021/04/04 00:24:14;;;;;;;13.15;7.30;;;;;;;;;;5011839;28;20046;-56
2021/04/04 00:26:40;;;;;;;12.75;7.03;;;;;;;;;;5004289;28;20136;-53
2021/04/04 00:29:07;;;;;;;16.35;7.85;;;;;;;;;;5013669;28;20116;-56
2021/04/04 00:31:34;;;;;;;13.15;7.53;;;;;;;;;;5013860;28;20044;-54
2021/04/04 00:34:00;;;;;;;13.30;8.05;;;;;;;;;;5013575;28;20109;-57
2021/04/04 00:36:26;;;;;;;18.85;9.77;;;;;;;;;;5013809;28;20026;-54
2021/04/04 00:38:52;;;;;;;19.90;9.65;;;;;;;;;;5013828;28;20030;-52
2021/04/04 00:41:18;;;;;;;22.52;10.13;;;;;;;;;;5013341;28;20029;-56
2021/04/04 00:43:44;;;;;;;17.85;9.90;;;;;;;;;;5012916;28;20494;-53
2021/04/04 00:46:10;;;;;;;21.05;10.73;;;;;;;;;;5013360;28;20042;-53
2021/04/04 00:48:36;;;;;;;19.45;10.38;;;;;;;;;;5013435;28;20033;-53
2021/04/04 00:51:03;;;;;;;19.88;10.50;;;;;;;;;;5013504;28;20038;-54
2021/04/04 00:53:28;;;;;;;16.88;9.48;;;;;;;;;;5012879;28;20045;-56
2021/04/04 00:55:54;;;;;;;14.60;8.32;;;;;;;;;;5013038;28;20065;-57
2021/04/04 00:58:21;;;;;;;19.98;9.38;;;;;;;;;;5012886;28;20030;-57
2021/04/04 01:00:47;;;;;;;17.63;9.75;;;;;;;;;;5013411;28;20100;-58
2021/04/04 01:03:12;;;;;;;15.82;8.48;;;;;;;;;;5013470;28;20473;-55
2021/04/04 01:05:45;;;;;;;14.02;8.23;;;;;;;;;;5013021;28;20097;-59
2021/04/04 01:08:11;;;;;;;13.98;8.00;;;;;;;;;;5012987;28;20131;-55
2021/04/04 01:10:40;;;;;;;14.77;8.60;;;;;;;;;;5012844;28;20116;-56
2021/04/04 01:13:09;;;;;;;16.65;8.50;;;;;;;;;;5012326;28;20474;-57
2021/04/04 01:15:37;;;;;;;17.60;9.40;;;;;;;;;;5012586;28;20049;-55
2021/04/04 01:18:09;;;;;;;16.92;9.82;;;;;;;;;;5012713;28;20496;-56
2021/04/04 01:20:47;;;;;;;16.77;8.80;;;;;;;;;;5012848;28;20100;-57
2021/04/04 01:23:23;;;;;;;15.63;9.23;;;;;;;;;;5007896;28;20061;-53
2021/04/04 01:25:51;;;;;;;13.20;8.32;;;;;;;;;;5012375;28;20085;-57
2021/04/04 01:28:20;;;;;;;15.10;8.93;;;;;;;;;;5012430;28;20057;-59
2021/04/04 01:30:47;;;;;;;15.45;8.50;;;;;;;;;;5012768;28;20386;-58
2021/04/04 01:33:15;;;;;;;15.35;8.75;;;;;;;;;;5010108;28;20429;-58
2021/04/04 01:35:44;;;;;;;15.18;8.23;;;;;;;;;;5012070;28;20418;-59
2021/04/04 01:38:13;;;;;;;17.25;9.02;;;;;;;;;;5012763;28;20427;-59
2021/04/04 01:40:41;;;;;;;16.38;9.02;;;;;;;;;;5012780;28;20523;-59
2021/04/04 01:43:09;;;;;;;18.40;9.10;;;;;;;;;;5012168;28;20442;-59
2021/04/04 01:45:35;;;;;;;14.50;8.90;;;;;;;;;;5010535;28;20064;-59
2021/04/04 01:48:02;;;;;;;14.00;8.85;;;;;;;;;;5012757;28;20030;-58
2021/04/04 01:50:28;;;;;;;15.70;8.32;;;;;;;;;;5012351;28;20049;-55
2021/04/04 01:52:55;;;;;;;17.92;9.93;;;;;;;;;;5012084;28;20046;-59
2021/04/04 01:55:22;;;;;;;17.60;9.20;;;;;;;;;;5009425;28;20056;-56
2021/04/04 01:57:48;;;;;;;18.17;9.85;;;;;;;;;;5012316;28;20133;-56
2021/04/04 02:00:16;;;;;;;15.90;8.73;;;;;;;;;;5012103;28;20018;-58
2021/04/04 02:02:42;;;;;;;15.88;8.65;;;;;;;;;;5012089;28;20036;-54
2021/04/04 02:05:09;;;;;;;16.40;8.88;;;;;;;;;;5011305;28;20052;-57
2021/04/04 02:07:38;;;;;;;15.40;9.38;;;;;;;;;;5011921;28;20018;-56
2021/04/04 02:10:06;;;;;;;13.93;7.93;;;;;;;;;;5012584;28;20030;-56
2021/04/04 02:12:34;;;;;;;18.83;9.27;;;;;;;;;;5011898;28;20042;-58
2021/04/04 02:15:01;;;;;;;17.95;8.63;;;;;;;;;;5012125;28;20164;-57
2021/04/04 02:17:27;;;;;;;15.85;8.65;;;;;;;;;;5011699;28;20128;-59
2021/04/04 02:19:53;;;;;;;13.75;8.13;;;;;;;;;;4993484;28;20670;-58
2021/04/04 02:22:20;;;;;;;18.40;8.73;;;;;;;;;;5012050;28;20045;-60
2021/04/04 02:24:46;;;;;;;19.15;8.60;;;;;;;;;;5006256;28;20466;-58
2021/04/04 02:27:13;;;;;;;15.45;8.20;;;;;;;;;;5005678;28;20531;-55
2021/04/04 02:29:39;;;;;;;18.90;8.18;;;;;;;;;;5012052;28;20062;-58
2021/04/04 02:32:08;;;;;;;10.75;7.75;;;;;;;;;;5011221;28;20034;-55
2021/04/04 02:34:35;;;;;;;13.38;7.75;;;;;;;;;;5012132;28;20545;-57
2021/04/04 02:37:02;;;;;;;14.30;7.80;;;;;;;;;;5011627;28;20026;-56
2021/04/04 02:39:29;;;;;;;12.18;7.68;;;;;;;;;;5011903;28;20030;-56
2021/04/04 02:41:57;;;;;;;12.70;7.60;;;;;;;;;;5011630;28;20022;-56
2021/04/04 02:44:25;;;;;;;15.55;7.93;;;;;;;;;;5012110;28;20393;-57
2021/04/04 02:46:54;;;;;;;14.57;7.93;;;;;;;;;;5011682;28;20025;-57
2021/04/04 02:49:21;;;;;;;14.55;7.55;;;;;;;;;;5000475;28;20029;-58
2021/04/04 02:51:50;;;;;;;12.77;7.80;;;;;;;;;;5011725;28;20026;-57
2021/04/04 02:54:19;;;;;;;13.35;7.80;;;;;;;;;;5011277;28;20034;-59
2021/04/04 02:56:47;;;;;;;11.90;7.72;;;;;;;;;;5011618;28;20133;-56
2021/04/04 02:59:16;;;;;;;13.07;7.82;;;;;;;;;;5011815;28;20116;-55
2021/04/04 03:01:45;;;;;;;13.27;7.88;;;;;;;;;;5011427;28;20112;-55
2021/04/04 03:04:11;;;;;;;12.23;7.57;;;;;;;;;;5011564;28;20062;-59
2021/04/04 03:06:40;;;;;;;14.02;8.13;;;;;;;;;;5011344;28;20029;-59
2021/04/04 03:09:07;;;;;;;14.77;8.65;;;;;;;;;;5011912;28;20424;-60
2021/04/04 03:11:34;;;;;;;12.13;8.20;;;;;;;;;;4993827;28;20032;-58
2021/04/04 03:14:01;;;;;;;14.65;8.57;;;;;;;;;;5011411;28;20540;-59
2021/04/04 03:16:28;;;;;;;15.70;8.32;;;;;;;;;;5011080;28;20381;-58
2021/04/04 03:18:54;;;;;;;11.75;7.93;;;;;;;;;;5014395;28;20379;-58
2021/04/04 03:21:20;;;;;;;13.82;8.15;;;;;;;;;;5015041;28;20191;-58
2021/04/04 03:23:47;;;;;;;13.30;7.25;;;;;;;;;;5009791;28;20101;-59
2021/04/04 03:26:14;;;;;;;15.23;7.38;;;;;;;;;;5013480;28;20037;-57
2021/04/04 03:28:41;;;;;;;13.68;8.00;;;;;;;;;;5015195;28;20402;-56
2021/04/04 03:31:07;;;;;;;12.82;7.53;;;;;;;;;;5014718;28;20068;-56
2021/04/04 03:33:34;;;;;;;12.80;7.35;;;;;;;;;;5014978;28;20026;-56
2021/04/04 03:36:00;;;;;;;13.45;7.95;;;;;;;;;;5014154;28;20112;-57
2021/04/04 03:38:27;;;;;;;11.10;7.70;;;;;;;;;;5015069;28;20061;-55
2021/04/04 03:40:54;;;;;;;12.90;7.85;;;;;;;;;;5014870;28;20033;-55
2021/04/04 03:43:28;;;;;;;14.57;7.57;;;;;;;;;;5014516;28;20030;-58
2021/04/04 03:45:55;;;;;;;15.07;7.45;;;;;;;;;;5014428;28;20075;-57
2021/04/04 03:48:21;;;;;;;15.93;7.68;;;;;;;;;;5014872;28;20133;-60
2021/04/04 03:50:48;;;;;;;13.15;7.15;;;;;;;;;;5001823;28;20029;-59
2021/04/04 03:53:17;;;;;;;10.80;6.82;;;;;;;;;;5014563;28;20399;-59
2021/04/04 03:55:43;;;;;;;17.17;8.30;;;;;;;;;;5013703;28;20080;-59
2021/04/04 03:58:10;;;;;;;13.45;7.32;;;;;;;;;;5014331;28;20427;-59
2021/04/04 04:00:36;;;;;;;12.20;7.05;;;;;;;;;;5014254;28;20028;-59
2021/04/04 04:03:03;;;;;;;9.25;6.53;;;;;;;;;;5014267;28;20474;-60
2021/04/04 04:05:29;;;;;;;13.52;7.03;;;;;;;;;;5013517;28;20029;-57
2021/04/04 04:07:56;;;;;;;10.95;7.47;;;;;;;;;;5014098;28;20551;-55
2021/04/04 04:10:22;;;;;;;12.73;6.55;;;;;;;;;;5014580;28;20497;-55
2021/04/04 04:12:49;;;;;;;8.90;6.40;;;;;;;;;;5014085;28;20053;-57
2021/04/04 04:15:16;;;;;;;12.77;6.88;;;;;;;;;;5014011;28;20097;-58
2021/04/04 04:17:44;;;;;;;12.68;6.93;;;;;;;;;;5012943;28;20038;-57
2021/04/04 04:20:11;;;;;;;9.98;6.55;;;;;;;;;;5014026;28;20049;-58
2021/04/04 04:22:38;;;;;;;11.48;6.32;;;;;;;;;;5014162;28;20501;-55
2021/04/04 04:25:05;;;;;;;11.20;6.85;;;;;;;;;;5005734;28;20081;-56
2021/04/04 04:27:31;;;;;;;8.98;6.55;;;;;;;;;;5012271;28;20029;-57
2021/04/04 04:30:00;;;;;;;14.70;6.85;;;;;;;;;;5012324;28;20478;-58
2021/04/04 04:32:26;;;;;;;10.88;6.47;;;;;;;;;;5013813;28;20061;-57
2021/04/04 04:34:54;;;;;;;12.60;6.68;;;;;;;;;;4996406;28;20469;-58
2021/04/04 04:37:21;;;;;;;11.48;7.25;;;;;;;;;;5011962;28;20022;-59
2021/04/04 04:39:47;;;;;;;10.95;7.05;;;;;;;;;;5013948;28;20451;-59
2021/04/04 04:42:14;;;;;;;10.40;6.10;;;;;;;;;;5012718;28;20088;-59
2021/04/04 04:44:42;;;;;;;13.10;7.20;;;;;;;;;;4996057;28;20022;-58
2021/04/04 04:47:12;;;;;;;9.60;6.85;;;;;;;;;;5009059;28;20493;-58
2021/04/04 04:49:39;;;;;;;13.32;6.47;;;;;;;;;;5009555;28;20038;-59
2021/04/04 04:52:05;;;;;;;14.02;7.20;;;;;;;;;;5006229;28;20061;-59
2021/04/04 04:54:32;;;;;;;11.23;7.00;;;;;;;;;;4996788;28;20038;-58
2021/04/04 04:56:59;;;;;;;15.23;7.68;;;;;;;;;;5010103;28;20099;-57
2021/04/04 04:59:25;;;;;;;14.52;8.50;;;;;;;;;;4994442;28;20037;-57
2021/04/04 05:01:52;;;;;;;15.40;8.60;;;;;;;;;;5007394;28;20038;-58
2021/04/04 05:04:18;;;;;;;14.20;7.75;;;;;;;;;;5005800;28;20108;-58
2021/04/04 05:06:46;;;;;;;15.10;7.43;;;;;;;;;;5009593;28;20038;-58
2021/04/04 05:09:13;;;;;;;12.05;6.55;;;;;;;;;;5006442;28;20061;-59
2021/04/04 05:11:44;;;;;;;14.40;6.88;;;;;;;;;;5007675;28;20030;-56
2021/04/04 05:14:11;;;;;;;12.45;7.15;;;;;;;;;;5006714;28;20035;-56
2021/04/04 05:16:37;;;;;;;15.93;8.10;;;;;;;;;;5003362;28;20021;-58
2021/04/04 05:19:06;;;;;;;14.95;7.22;;;;;;;;;;5005874;28;20462;-55
2021/04/04 05:21:33;;;;;;;11.90;6.35;;;;;;;;;;5011732;28;20517;-60
2021/04/04 05:23:59;;;;;;;9.57;7.00;;;;;;;;;;5005149;28;20026;-59
2021/04/04 05:26:26;;;;;;;13.65;7.55;;;;;;;;;;5007130;28;20041;-59
2021/04/04 05:28:53;;;;;;;13.50;6.95;;;;;;;;;;5011670;28;20116;-56
2021/04/04 05:31:20;;;;;;;13.02;7.00;;;;;;;;;;5012581;28;20100;-56
2021/04/04 05:33:46;;;;;;;12.63;6.82;;;;;;;;;;5011891;28;20037;-60
2021/04/04 05:36:12;;;;;;;13.90;6.60;;;;;;;;;;5007215;28;20034;-58
2021/04/04 05:38:38;;;;;;;12.98;7.22;;;;;;;;;;5000673;28;20030;-54
2021/04/04 05:41:04;;;;;;;9.52;6.00;;;;;;;;;;5000728;28;20088;-56
2021/04/04 05:43:36;;;;;;;11.45;6.93;;;;;;;;;;5003448;28;20105;-59
2021/04/04 05:46:11;;;;;;;11.02;5.93;;;;;;;;;;5007519;28;20038;-57
2021/04/04 05:48:52;;;;;;;10.93;6.75;;;;;;;;;;5003951;28;20026;-59
2021/04/04 05:51:18;;;;;;;11.30;6.10;;;;;;;;;;5003771;28;20121;-58
2021/04/04 05:53:47;;;;;;;11.38;6.57;;;;;;;;;;5003756;28;20514;-57
2021/04/04 05:56:31;;;;;;;11.65;6.10;;;;;;;;;;5000441;28;20081;-56
2021/04/04 05:59:03;;;;;;;13.07;7.40;;;;;;;;;;5001321;28;20141;-57
2021/04/04 06:01:29;;;;;;;10.85;6.57;;;;;;;;;;5009902;28;20041;-57
2021/04/04 06:04:07;;;;;;;11.30;6.82;;;;;;;;;;4998103;28;20133;-57
2021/04/04 06:06:40;;;;;;;10.60;6.35;;;;;;;;;;5002176;28;20038;-59
2021/04/04 06:09:24;;;;;;;12.18;6.20;;;;;;;;;;5000028;28;20030;-55
2021/04/04 06:12:09;;;;;;;14.00;5.88;;;;;;;;;;4999309;28;20037;-56
2021/04/04 06:14:58;;;;;;;9.10;5.32;;;;;;;;;;5001662;28;20095;-59
2021/04/04 06:17:46;;;;;;;10.45;5.95;;;;;;;;;;4964002;28;20038;-60
2021/04/04 06:20:30;;;;;;;9.38;5.70;;;;;;;;;;5004257;28;20035;-56
2021/04/04 06:23:05;;;;;;;6.95;4.68;;;;;;;;;;4994499;28;20092;-58
2021/04/04 06:25:51;;;;;;;12.95;5.47;;;;;;;;;;5010621;28;20107;-59
2021/04/04 06:28:36;;;;;;;9.93;4.90;;;;;;;;;;5008416;28;20449;-60
2021/04/04 06:31:12;;;;;;;8.27;4.93;;;;;;;;;;5010800;28;20125;-58
2021/04/04 06:33:42;;;;;;;9.70;5.05;;;;;;;;;;5010756;28;20087;-58
2021/04/04 06:36:17;;;;;;;10.23;4.53;;;;;;;;;;5008574;28;20033;-58
2021/04/04 06:39:03;;;;;;;8.77;4.47;;;;;;;;;;5010769;28;20038;-59
2021/04/04 06:41:32;;;;;;;9.05;4.65;;;;;;;;;;4989885;28;20524;-59
2021/04/04 06:44:01;;;;;;;7.90;4.15;;;;;;;;;;5006762;28;20026;-59
2021/04/04 06:46:46;;;;;;;12.57;4.70;;;;;;;;;;5006475;28;20030;-59
2021/04/04 06:49:23;;;;;;;8.55;4.65;;;;;;;;;;5005799;28;20446;-60
2021/04/04 06:51:52;;;;;;;7.00;4.07;;;;;;;;;;5003346;28;20073;-58
2021/04/04 06:54:33;;;;;;;5.78;3.90;;;;;;;;;;4994848;28;20026;-58
2021/04/04 06:57:18;;;;;;;7.32;3.95;;;;;;;;;;5007710;28;20120;-59
2021/04/04 07:00:01;;;;;;;10.02;4.15;;;;;;;;;;4992515;28;20026;-59
2021/04/04 07:02:31;;;;;;;7.00;3.83;;;;;;;;;;4996802;28;20033;-58
2021/04/04 07:05:02;;;;;;;7.45;3.42;;;;;;;;;;5012735;28;20033;-57
2021/04/04 07:07:47;;;;;;;8.07;3.88;;;;;;;;;;5010452;28;20467;-57
2021/04/04 07:10:36;;;;;;;6.43;3.67;;;;;;;;;;5012604;28;20492;-57
2021/04/04 07:13:12;;;;;;;6.75;3.17;;;;;;;;;;5010162;28;20025;-56
2021/04/04 07:15:50;;;;;;;7.82;2.95;;;;;;;;;;5010262;28;20112;-56
2021/04/04 07:18:35;;;;;;;9.68;3.28;;;;;;;;;;5009717;28;20034;-57
2021/04/04 07:21:18;;;;;;;8.23;3.03;;;;;;;;;;5004749;28;20084;-58
2021/04/04 07:23:50;;;;;;;6.90;2.80;;;;;;;;;;5011753;28;20025;-58
2021/04/04 07:26:37;;;;;;;8.38;2.95;;;;;;;;;;4990128;28;20844;-58
2021/04/04 07:29:06;;;;;;;5.65;3.13;;;;;;;;;;5003710;28;20477;-56
2021/04/04 07:31:38;;;;;;;6.40;3.40;;;;;;;;;;5008112;28;20034;-58
2021/04/04 07:34:04;;;;;;;12.68;3.78;;;;;;;;;;5014170;28;20045;-46
2021/04/04 07:36:45;;;;;;;5.38;2.88;;;;;;;;;;4986726;28;20357;-48
2021/04/04 07:39:30;;;;;;;6.35;3.50;;;;;;;;;;5007962;28;20433;-47
2021/04/04 07:42:02;;;;;;;5.65;3.53;;;;;;;;;;5010676;28;20029;-46
2021/04/04 07:44:47;;;;;;;8.05;3.35;;;;;;;;;;5014004;28;20032;-46
2021/04/04 07:47:23;;;;;;;6.28;3.17;;;;;;;;;;5010647;28;20038;-46
2021/04/04 07:49:53;;;;;;;7.97;3.97;;;;;;;;;;5008067;28;20490;-46
2021/04/04 07:52:19;;;;;;;15.15;5.50;;;;;;;;;;5013536;28;20030;-47
2021/04/04 07:54:54;;;;;;;14.13;4.57;;;;;;;;;;5011657;28;20366;-46
2021/04/04 07:57:20;;;;;;;10.52;4.68;;;;;;;;;;5006446;28;20022;-46
2021/04/04 07:59:47;;;;;;;47.15;7.20;;;;;;;;;;5010850;28;20026;-47
2021/04/04 08:02:30;;;;;;;18.52;5.78;;;;;;;;;;5003018;28;20030;-46
2021/04/04 08:05:00;;;;;;;18.20;6.10;;;;;;;;;;5010888;28;20030;-46
2021/04/04 08:07:29;;;;;;;12.60;4.88;;;;;;;;;;5011583;28;20022;-46
2021/04/04 08:10:07;;;;;;;15.48;5.53;;;;;;;;;;5011926;28;20034;-46
2021/04/04 08:12:39;;;;;;;16.67;4.82;;;;;;;;;;5011644;28;20367;-46
2021/04/04 08:15:07;;;;;;;16.00;5.55;;;;;;;;;;4989656;28;20040;-46
2021/04/04 08:17:36;;;;;;;13.10;4.25;;;;;;;;;;5013065;28;20127;-46
2021/04/04 08:20:17;;;;;;;16.55;4.75;;;;;;;;;;5012208;28;20135;-48
2021/04/04 08:22:45;;;;;;;13.13;4.68;;;;;;;;;;5013132;28;20042;-46
2021/04/04 08:25:14;;;;;;;18.80;5.28;;;;;;;;;;5009468;28;20128;-46
2021/04/04 08:27:47;;;;;;;19.27;4.57;;;;;;;;;;5012858;28;20078;-47
2021/04/04 08:30:19;;;;;;;17.83;5.15;;;;;;;;;;5009212;28;20095;-46
2021/04/04 08:32:51;;;;;;;15.63;5.15;;;;;;;;;;5012926;28;20049;-46
2021/04/04 08:35:29;;;;;;;19.77;6.43;;;;;;;;;;5012535;28;20045;-46
2021/04/04 08:37:56;;;;;;;21.33;5.28;;;;;;;;;;5009022;28;20025;-46
2021/04/04 08:40:23;;;;;;;17.65;4.93;;;;;;;;;;5013109;28;20030;-46
2021/04/04 08:42:50;;;;;;;14.68;5.00;;;;;;;;;;5012737;28;20037;-47
2021/04/04 08:45:35;;;;;;;13.00;4.60;;;;;;;;;;5011059;28;20026;-46
2021/04/04 08:48:01;;;;;;;19.00;4.13;;;;;;;;;;5013025;28;20032;-46
2021/04/04 08:50:29;;;;;;;13.98;4.15;;;;;;;;;;5011101;28;20081;-46
2021/04/04 08:52:56;;;;;;;15.70;4.75;;;;;;;;;;5013237;28;20029;-45
2021/04/04 08:55:23;;;;;;;13.05;4.85;;;;;;;;;;5012176;28;20029;-46
2021/04/04 08:57:50;;;;;;;13.38;4.50;;;;;;;;;;5012673;28;21024;-46
2021/04/04 09:00:17;;;;;;;15.85;4.82;;;;;;;;;;4993411;28;20453;-46
2021/04/04 09:02:49;;;;;;;18.88;4.93;;;;;;;;;;5001882;28;20504;-46
2021/04/04 09:05:15;;;;;;;24.13;5.55;;;;;;;;;;5006836;28;20040;-46
2021/04/04 09:07:42;;;;;;;14.68;5.18;;;;;;;;;;4997735;28;20085;-46
2021/04/04 09:10:11;;;;;;;13.57;5.63;;;;;;;;;;5003496;28;20034;-46
2021/04/04 09:12:38;;;;;;;17.70;4.80;;;;;;;;;;5007851;28;20053;-46
2021/04/04 09:15:05;;;;;;;18.20;5.00;;;;;;;;;;5007042;28;20466;-46
2021/04/04 09:17:31;;;;;;;13.27;4.75;;;;;;;;;;5007006;28;20049;-47
2021/04/04 09:20:03;;;;;;;13.85;4.40;;;;;;;;;;5012570;28;20466;-46
2021/04/04 09:22:29;;;;;;;44.35;7.35;;;;;;;;;;5011700;28;20114;-48
2021/04/04 09:25:09;;;;;;;17.90;4.60;;;;;;;;;;5011776;28;20497;-46
2021/04/04 09:27:36;;;;;;;15.40;4.32;;;;;;;;;;5011501;28;20091;-47
2021/04/04 09:30:03;;;;;;;18.15;4.85;;;;;;;;;;5011401;28;20709;-47
2021/04/04 09:32:35;;;;;;;18.20;4.30;;;;;;;;;;5006352;28;20034;-47
2021/04/04 09:35:03;;;;;;;14.25;4.82;;;;;;;;;;5008693;28;20018;-47
2021/04/04 09:37:29;;;;;;;17.85;4.38;;;;;;;;;;5011359;28;20026;-46
2021/04/04 09:39:56;;;;;;;15.88;4.18;;;;;;;;;;5011249;28;20447;-47
2021/04/04 09:42:22;;;;;;;16.08;3.92;;;;;;;;;;5012312;28;20172;-46
2021/04/04 09:44:48;;;;;;;11.50;3.72;;;;;;;;;;5012687;28;20469;-46
2021/04/04 09:47:14;;;;;;;12.55;4.05;;;;;;;;;;5012450;28;20034;-46
2021/04/04 09:49:41;;;;;;;12.93;4.35;;;;;;;;;;5012553;28;20033;-47
2021/04/04 09:52:40;;;;;;;13.43;4.03;;;;;;;;;;5012450;28;20041;-46
2021/04/04 09:55:07;;;;;;;15.82;3.97;;;;;;;;;;4968739;28;20461;-47
2021/04/04 09:57:40;;;;;;;11.80;3.33;;;;;;;;;;5012164;28;20030;-46
2021/04/04 10:00:29;;;;;;;16.10;4.13;;;;;;;;;;5012562;28;20076;-46
2021/04/04 10:02:57;;;;;;;12.10;3.85;;;;;;;;;;4987849;28;20048;-46
2021/04/04 10:05:27;;;;;;;12.45;4.13;;;;;;;;;;5012145;28;20038;-47
2021/04/04 10:07:53;;;;;;;11.10;3.25;;;;;;;;;;5012712;28;20029;-47
2021/04/04 10:10:30;;;;;;;12.65;3.80;;;;;;;;;;5012208;28;20474;-47
2021/04/04 10:12:57;;;;;;;15.32;3.80;;;;;;;;;;5012286;28;20050;-47
2021/04/04 10:15:23;;;;;;;11.90;3.78;;;;;;;;;;5012191;28;20040;-46
2021/04/04 10:17:56;;;;;;;16.17;4.20;;;;;;;;;;5012291;28;20029;-47
2021/04/04 10:20:42;;;;;;;11.43;3.50;;;;;;;;;;5012308;28;20029;-47
2021/04/04 10:23:08;;;;;;;12.02;4.30;;;;;;;;;;5012185;28;20045;-47
2021/04/04 10:25:35;;;;;;;9.98;3.50;;;;;;;;;;5004479;28;20050;-46
2021/04/04 10:28:03;;;;;;;13.05;4.00;;;;;;;;;;5010968;28;20484;-47
2021/04/04 10:30:31;;;;;;;11.27;3.30;;;;;;;;;;5000502;28;20029;-47
2021/04/04 10:32:58;;;;;;;14.70;2.83;;;;;;;;;;5012233;28;20505;-47
2021/04/04 10:35:28;;;;;;;14.30;4.00;;;;;;;;;;5011954;28;20474;-47
2021/04/04 10:38:08;;;;;;;9.80;3.15;;;;;;;;;;5011742;28;20041;-47
2021/04/04 10:40:44;;;;;;;9.50;2.75;;;;;;;;;;5006278;28;20037;-46
2021/04/04 10:43:11;;;;;;;19.02;3.42;;;;;;;;;;5012049;28;20647;-47
2021/04/04 10:45:37;;;;;;;13.18;2.80;;;;;;;;;;5011811;28;20022;-47
2021/04/04 10:48:07;;;;;;;12.15;3.70;;;;;;;;;;5011540;28;20518;-47
2021/04/04 10:50:33;;;;;;;9.27;3.50;;;;;;;;;;5013071;28;20022;-46
2021/04/04 10:52:59;;;;;;;11.52;3.50;;;;;;;;;;5011768;28;20022;-47
2021/04/04 10:55:26;;;;;;;15.35;3.67;;;;;;;;;;5011463;28;20041;-47
2021/04/04 10:57:53;;;;;;;8.82;3.22;;;;;;;;;;5002935;28;20076;-48
2021/04/04 11:00:19;;;;;;;7.40;2.50;;;;;;;;;;5011910;28;20478;-47
2021/04/04 11:02:46;;;;;;;8.52;3.35;;;;;;;;;;5012127;28;20030;-47
2021/04/04 11:05:13;;;;;;;16.40;3.35;;;;;;;;;;5011534;28;20096;-47
2021/04/04 11:07:40;;;;;;;9.30;2.75;;;;;;;;;;5011784;28;20034;-47
2021/04/04 11:10:08;;;;;;;11.65;3.35;;;;;;;;;;5012430;28;20034;-47
2021/04/04 11:12:35;;;;;;;9.13;3.05;;;;;;;;;;5011597;28;20382;-47
2021/04/04 11:15:03;;;;;;;11.68;3.15;;;;;;;;;;4991780;28;20034;-47
2021/04/04 11:17:30;;;;;;;9.63;2.58;;;;;;;;;;5009308;28;20026;-47
2021/04/04 11:19:56;;;;;;;15.40;3.58;;;;;;;;;;5009709;28;20022;-48
2021/04/04 11:22:22;;;;;;;15.23;3.42;;;;;;;;;;5003962;28;20026;-47
2021/04/04 11:25:15;;;;;;;8.60;2.45;;;;;;;;;;5003089;28;20057;-48
2021/04/04 11:27:41;;;;;;;8.80;2.92;;;;;;;;;;5003093;28;20525;-47
2021/04/04 11:30:15;;;;;;;12.85;2.83;;;;;;;;;;5006295;28;20026;-48
2021/04/04 11:32:45;;;;;;;11.27;3.03;;;;;;;;;;5003870;28;20555;-47
2021/04/04 11:35:12;;;;;;;15.32;3.45;;;;;;;;;;5009270;28;20112;-47
2021/04/04 11:37:40;;;;;;;10.30;3.40;;;;;;;;;;5009555;28;20034;-47
2021/04/04 11:40:25;;;;;;;7.70;2.35;;;;;;;;;;5002910;28;20646;-49
2021/04/04 11:43:11;;;;;;;9.95;2.88;;;;;;;;;;5009826;28;20033;-47
2021/04/04 11:45:38;;;;;;;6.90;2.58;;;;;;;;;;4999977;28;20040;-47
2021/04/04 11:48:23;;;;;;;9.48;3.38;;;;;;;;;;5013875;28;20034;-48
2021/04/04 11:50:49;;;;;;;7.72;2.53;;;;;;;;;;5013437;28;20432;-48
2021/04/04 11:53:34;;;;;;;9.77;2.97;;;;;;;;;;5013559;28;20033;-48
2021/04/04 11:56:00;;;;;;;10.13;2.67;;;;;;;;;;5010548;28;20034;-47
2021/04/04 11:58:26;;;;;;;9.45;2.83;;;;;;;;;;5009859;28;20017;-48
2021/04/04 12:00:56;;;;;;;10.40;2.75;;;;;;;;;;5008829;28;20037;-47
2021/04/04 12:03:25;;;;;;;12.90;3.00;;;;;;;;;;5004536;28;20046;-47
2021/04/04 12:05:52;;;;;;;9.50;2.55;;;;;;;;;;5003648;28;20037;-48
2021/04/04 12:08:26;;;;;;;14.13;3.50;;;;;;;;;;5010831;28;20112;-48
2021/04/04 12:10:52;;;;;;;10.63;2.72;;;;;;;;;;5007377;28;20390;-49
2021/04/04 12:13:18;;;;;;;8.05;2.70;;;;;;;;;;5013250;28;20038;-50
2021/04/04 12:15:44;;;;;;;9.85;2.45;;;;;;;;;;5008623;28;20041;-49
2021/04/04 12:18:10;;;;;;;16.02;2.83;;;;;;;;;;5011358;28;20370;-48
2021/04/04 12:20:37;;;;;;;9.10;2.35;;;;;;;;;;5011179;28;20037;-48
2021/04/04 12:23:09;;;;;;;8.48;2.72;;;;;;;;;;5008006;28;20604;-48
2021/04/04 12:25:35;;;;;;;14.88;2.85;;;;;;;;;;5007962;28;20140;-48
2021/04/04 12:28:02;;;;;;;10.23;2.70;;;;;;;;;;5008064;28;20036;-48
2021/04/04 12:30:36;;;;;;;9.45;3.20;;;;;;;;;;5008201;28;20104;-48
2021/04/04 12:33:07;;;;;;;11.38;2.85;;;;;;;;;;5007896;28;20091;-48
2021/04/04 12:35:34;;;;;;;9.20;2.60;;;;;;;;;;5004850;28;20109;-48
2021/04/04 12:38:00;;;;;;;10.60;2.72;;;;;;;;;;5012935;28;20026;-48
2021/04/04 12:40:26;;;;;;;8.70;2.40;;;;;;;;;;5009142;28;20036;-49
2021/04/04 12:42:56;;;;;;;11.68;2.33;;;;;;;;;;5008042;28;20367;-48
2021/04/04 12:45:23;;;;;;;10.55;2.38;;;;;;;;;;5007926;28;20774;-49
2021/04/04 12:47:49;;;;;;;9.45;2.80;;;;;;;;;;5009333;28;20491;-48
2021/04/04 12:50:15;;;;;;;8.82;2.20;;;;;;;;;;5004571;28;20112;-48
2021/04/04 12:52:46;;;;;;;9.65;2.45;;;;;;;;;;5006620;28;20113;-48
2021/04/04 12:55:15;;;;;;;11.40;2.42;;;;;;;;;;5012438;28;20682;-48
2021/04/04 12:57:41;;;;;;;7.47;2.20;;;;;;;;;;4988438;28;20489;-49
2021/04/04 13:00:18;;;;;;;10.60;2.85;;;;;;;;;;5009658;28;20386;-48
2021/04/04 13:02:50;;;;;;;10.88;2.50;;;;;;;;;;5012651;28;20064;-48
2021/04/04 13:05:16;;;;;;;8.27;2.47;;;;;;;;;;5007448;28;20062;-48
2021/04/04 13:07:43;;;;;;;10.52;2.22;;;;;;;;;;5007977;28;20537;-47
2021/04/04 13:10:10;;;;;;;10.68;3.03;;;;;;;;;;5009295;28;20401;-48
2021/04/04 13:12:39;;;;;;;12.95;2.50;;;;;;;;;;5011461;28;20030;-48
2021/04/04 13:15:07;;;;;;;8.07;2.05;;;;;;;;;;4991995;28;20040;-48
2021/04/04 13:17:42;;;;;;;7.45;2.03;;;;;;;;;;5011705;28;20096;-48
2021/04/04 13:20:09;;;;;;;14.02;2.13;;;;;;;;;;5004659;28;20534;-49
2021/04/04 13:22:35;;;;;;;11.23;2.78;;;;;;;;;;5005233;28;20450;-48
2021/04/04 13:25:01;;;;;;;9.32;2.05;;;;;;;;;;5005311;28;20061;-48
2021/04/04 13:27:27;;;;;;;7.13;2.25;;;;;;;;;;5004348;28;20040;-49
2021/04/04 13:29:53;;;;;;;8.93;2.42;;;;;;;;;;4988430;28;20072;-49
2021/04/04 13:32:19;;;;;;;9.27;2.42;;;;;;;;;;5004274;28;20038;-48
2021/04/04 13:34:50;;;;;;;9.25;2.20;;;;;;;;;;5006899;28;20030;-48
2021/04/04 13:37:16;;;;;;;10.90;2.70;;;;;;;;;;5009849;28;20025;-48
2021/04/04 13:39:43;;;;;;;9.73;2.20;;;;;;;;;;5011978;28;20371;-48
2021/04/04 13:42:09;;;;;;;8.63;2.22;;;;;;;;;;5003897;28;20030;-48
2021/04/04 13:44:42;;;;;;;9.18;2.25;;;;;;;;;;5009072;28;20030;-48
2021/04/04 13:47:19;;;;;;;9.52;2.13;;;;;;;;;;5010340;28;20029;-48
2021/04/04 13:49:45;;;;;;;12.45;2.30;;;;;;;;;;5007206;28;20033;-48
2021/04/04 13:52:15;;;;;;;13.20;2.70;;;;;;;;;;5011178;28;20022;-48
2021/04/04 13:54:41;;;;;;;15.40;3.17;;;;;;;;;;5010125;28;20022;-48
2021/04/04 13:57:10;;;;;;;13.73;2.45;;;;;;;;;;5010384;28;20041;-48
2021/04/04 13:59:45;;;;;;;9.25;2.40;;;;;;;;;;5011696;28;20437;-48
2021/04/04 14:02:16;;;;;;;9.13;2.60;;;;;;;;;;5000086;28;20034;-48
2021/04/04 14:04:42;;;;;;;6.47;2.40;;;;;;;;;;5007008;28;20521;-50
2021/04/04 14:07:18;;;;;;;13.30;2.50;;;;;;;;;;5010681;28;20108;-49
2021/04/04 14:09:45;;;;;;;11.82;2.60;;;;;;;;;;5005331;28;20071;-49
2021/04/04 14:12:12;;;;;;;14.25;2.65;;;;;;;;;;5003534;28;20040;-48
2021/04/04 14:14:38;;;;;;;11.73;3.13;;;;;;;;;;5010310;28;20026;-48
2021/04/04 14:17:05;;;;;;;9.13;2.17;;;;;;;;;;5007074;28;20386;-48
2021/04/04 14:19:31;;;;;;;9.80;2.55;;;;;;;;;;5007205;28;20029;-48
2021/04/04 14:21:58;;;;;;;14.55;3.88;;;;;;;;;;5008834;28;20414;-48
2021/04/04 14:24:24;;;;;;;14.57;2.90;;;;;;;;;;5008514;28;20050;-48
2021/04/04 14:26:50;;;;;;;12.13;2.78;;;;;;;;;;5004521;28;20037;-47
2021/04/04 14:29:17;;;;;;;15.10;2.70;;;;;;;;;;4999280;28;20061;-48
2021/04/04 14:31:44;;;;;;;19.85;3.72;;;;;;;;;;5010897;28;20184;-48
2021/04/04 14:34:10;;;;;;;10.45;3.08;;;;;;;;;;5010563;28;20441;-48
2021/04/04 14:36:39;;;;;;;11.95;3.92;;;;;;;;;;5006049;28;20064;-48
2021/04/04 14:39:05;;;;;;;18.77;2.97;;;;;;;;;;5003663;28;20371;-49
2021/04/04 14:41:31;;;;;;;9.50;2.90;;;;;;;;;;5011472;28;20052;-49
2021/04/04 14:46:24;;;;;;;14.52;3.63;;;;;;;;;;5010980;28;20072;-48
2021/04/04 14:48:50;;;;;;;10.98;3.40;;;;;;;;;;5000998;28;20033;-48
2021/04/04 14:51:16;;;;;;;11.40;3.42;;;;;;;;;;5000391;28;20041;-47